Time;durP1;ratioP1;P1;durP2;ratioP2;P2;SDS_P1;SDS_P2;PMS_P1;PMS_P2;Temp;Humidity;BMP_temperature;BMP_pressure;BME280_temperature;BME280_humidity;BME280_pressure;Samples;Min_cycle;Max_cycle;Signal;HPM_P1;HPM_P2
2022/07/14 00:01:27;;;;;;;5.80;2.58;;;;;;;22.18;53.93;101308.25;5080130;27;20049;-70
2022/07/14 00:03:53;;;;;;;5.70;2.30;;;;;;;22.05;54.43;101318.38;5065755;28;20048;-70
2022/07/14 00:06:21;;;;;;;4.40;2.08;;;;;;;21.77;54.76;101319.13;5066868;28;20102;-70
2022/07/14 00:08:47;;;;;;;3.25;1.85;;;;;;;21.66;54.75;101325.41;5067653;28;20053;-70
2022/07/14 00:11:14;;;;;;;6.15;2.65;;;;;;;21.80;54.16;101325.03;5062183;28;20106;-70
2022/07/14 00:13:40;;;;;;;5.45;2.17;;;;;;;21.71;54.30;101319.66;5063353;28;20040;-70
2022/07/14 00:16:07;;;;;;;4.47;1.92;;;;;;;21.72;53.58;101327.56;5050073;28;20111;-70
2022/07/14 00:18:33;;;;;;;3.25;1.83;;;;;;;21.60;53.94;101338.47;5076691;28;20090;-70
2022/07/14 00:20:59;;;;;;;2.63;1.50;;;;;;;21.97;52.11;101333.38;5065414;28;20049;-70
2022/07/14 00:23:27;;;;;;;6.68;1.65;;;;;;;21.67;52.30;101336.94;5065381;28;20083;-70
2022/07/14 00:25:53;;;;;;;3.35;1.48;;;;;;;21.81;52.48;101336.53;5067049;28;20063;-70
2022/07/14 00:28:20;;;;;;;2.83;1.50;;;;;;;21.41;52.77;101325.91;5061830;28;20044;-70
2022/07/14 00:30:50;;;;;;;2.30;1.20;;;;;;;21.51;51.72;101326.75;5064614;28;20671;-70
2022/07/14 00:33:17;;;;;;;3.60;1.60;;;;;;;21.27;53.27;101331.59;5065739;28;20075;-70
2022/07/14 00:35:43;;;;;;;2.53;1.30;;;;;;;21.44;52.17;101333.63;5066263;28;20526;-70
2022/07/14 00:38:09;;;;;;;3.70;1.30;;;;;;;21.45;51.94;101332.66;5074177;27;20074;-70
2022/07/14 00:40:37;;;;;;;2.65;1.40;;;;;;;21.11;53.16;101334.75;5064311;28;20083;-70
2022/07/14 00:43:04;;;;;;;4.05;1.23;;;;;;;21.06;52.73;101331.63;5066802;28;20106;-70
2022/07/14 00:45:30;;;;;;;4.07;1.30;;;;;;;21.25;51.77;101339.72;5054292;28;20059;-70
2022/07/14 00:47:57;;;;;;;3.08;1.20;;;;;;;21.06;52.48;101341.44;5061946;28;20418;-70
2022/07/14 00:50:23;;;;;;;4.47;1.17;;;;;;;21.45;51.44;101338.00;5061964;28;20488;-70
2022/07/14 00:52:51;;;;;;;3.08;1.23;;;;;;;21.33;51.38;101345.25;5061016;28;20102;-69
2022/07/14 00:55:18;;;;;;;2.80;1.15;;;;;;;20.97;51.88;101348.38;5060401;28;20071;-69
2022/07/14 00:57:46;;;;;;;3.65;1.10;;;;;;;20.81;51.96;101348.84;5068787;28;20048;-70
2022/07/14 01:00:14;;;;;;;2.92;1.20;;;;;;;21.11;50.28;101348.06;5061873;28;20055;-69
2022/07/14 01:02:42;;;;;;;4.47;1.20;;;;;;;21.26;50.22;101349.41;5065556;28;20048;-69
2022/07/14 01:05:09;;;;;;;2.78;1.02;;;;;;;20.95;51.00;101353.03;5066173;28;20045;-70
2022/07/14 01:07:36;;;;;;;1.65;0.90;;;;;;;21.17;50.07;101357.38;5066818;28;20053;-70
2022/07/14 01:10:03;;;;;;;2.70;0.95;;;;;;;21.11;50.18;101357.88;5062985;28;20835;-70
2022/07/14 01:12:30;;;;;;;4.00;1.25;;;;;;;20.80;51.83;101354.31;5062517;27;20044;-69
2022/07/14 01:14:57;;;;;;;2.58;1.20;;;;;;;20.58;51.75;101359.75;5066341;28;20444;-69
2022/07/14 01:17:24;;;;;;;4.10;1.23;;;;;;;20.37;52.12;101360.56;5079445;28;20048;-70
2022/07/14 01:19:50;;;;;;;3.13;1.15;;;;;;;20.73;51.16;101369.13;5071833;28;20063;-70
2022/07/14 01:22:18;;;;;;;1.70;1.10;;;;;;;20.57;52.02;101358.06;5065632;28;20128;-70
2022/07/14 01:24:44;;;;;;;6.88;1.27;;;;;;;20.56;51.75;101357.22;5067190;28;20193;-70
2022/07/14 01:27:11;;;;;;;6.07;1.42;;;;;;;20.57;51.08;101364.25;5072321;28;20550;-70
2022/07/14 01:29:38;;;;;;;2.97;1.00;;;;;;;20.35;51.95;101359.00;5056447;28;20044;-70
2022/07/14 01:32:05;;;;;;;4.85;1.45;;;;;;;20.13;53.55;101356.38;5052589;28;20099;-70
2022/07/14 01:34:31;;;;;;;2.72;1.08;;;;;;;20.38;52.73;101359.59;5065512;28;20098;-70
2022/07/14 01:36:58;;;;;;;4.22;1.35;;;;;;;20.22;53.75;101367.13;5064914;28;20045;-70
2022/07/14 01:39:25;;;;;;;3.85;1.50;;;;;;;20.18;54.45;101360.34;5064908;28;20056;-70
2022/07/14 01:41:52;;;;;;;4.32;1.60;;;;;;;19.92;55.82;101361.63;5066844;28;20098;-70
2022/07/14 01:44:18;;;;;;;3.67;1.38;;;;;;;20.34;54.19;101357.31;5064428;28;20170;-70
2022/07/14 01:46:44;;;;;;;5.43;1.88;;;;;;;20.18;54.54;101364.81;5066406;28;20102;-70
2022/07/14 01:49:12;;;;;;;4.00;1.75;;;;;;;20.08;54.51;101367.41;5068932;28;20041;-70
2022/07/14 01:51:38;;;;;;;4.82;1.48;;;;;;;20.01;54.72;101357.38;5069437;28;20064;-70
2022/07/14 01:54:05;;;;;;;2.35;1.08;;;;;;;20.14;53.72;101350.91;5069031;28;20500;-70
2022/07/14 01:56:33;;;;;;;5.25;1.50;;;;;;;19.67;54.32;101357.44;5066240;28;20088;-70
2022/07/14 01:59:00;;;;;;;3.67;1.27;;;;;;;19.41;54.11;101362.16;5059301;28;20053;-70
2022/07/14 02:01:42;;;;;;;3.42;1.40;;;;;;;19.40;54.28;101371.06;5069133;28;20063;-70
2022/07/14 02:04:10;;;;;;;7.78;1.85;;;;;;;19.35;55.22;101369.75;5068185;28;20048;-70
2022/07/14 02:06:38;;;;;;;4.82;1.67;;;;;;;19.43;54.28;101362.91;5069108;28;20123;-69
2022/07/14 02:09:04;;;;;;;5.10;1.65;;;;;;;18.92;55.25;101359.78;5069358;28;20049;-69
2022/07/14 02:14:16;;;;;;;4.97;1.13;;;;;;;18.62;56.27;101366.59;5066639;28;20515;-69
2022/07/14 02:16:42;;;;;;;7.38;1.30;;;;;;;18.48;56.80;101371.06;5067014;28;20511;-69
2022/07/14 02:19:08;;;;;;;8.43;1.58;;;;;;;18.52;56.97;101370.88;5068578;28;20040;-69
2022/07/14 02:21:35;;;;;;;5.47;1.38;;;;;;;18.40;58.20;101373.44;5068056;28;20036;-69
2022/07/14 02:24:02;;;;;;;6.93;1.77;;;;;;;18.40;58.19;101362.81;5056573;28;20507;-69
2022/07/14 02:26:28;;;;;;;8.68;1.70;;;;;;;18.42;58.89;101373.34;5076771;28;20044;-69
2022/07/14 02:28:56;;;;;;;6.65;1.50;;;;;;;18.55;58.75;101366.19;5045487;28;20114;-69
2022/07/14 02:31:22;;;;;;;10.25;2.42;;;;;;;18.32;59.93;101367.03;5051719;28;20416;-69
2022/07/14 02:33:49;;;;;;;7.85;1.75;;;;;;;18.20;60.76;101370.59;5059719;28;20040;-69
2022/07/14 02:36:16;;;;;;;5.13;1.90;;;;;;;18.24;61.00;101377.38;5079220;28;20135;-69
2022/07/14 02:38:42;;;;;;;7.80;1.85;;;;;;;17.67;63.05;101377.09;5077035;28;20442;-69
2022/07/14 02:41:09;;;;;;;6.50;1.65;;;;;;;17.76;63.23;101381.75;5072342;28;20040;-69
2022/07/14 02:43:35;;;;;;;7.68;1.88;;;;;;;17.66;64.45;101386.03;5067634;28;20048;-69
2022/07/14 02:46:04;;;;;;;9.70;2.50;;;;;;;17.25;66.34;101397.69;5068285;28;20052;-69
2022/07/14 02:48:30;;;;;;;10.77;2.80;;;;;;;17.39;66.43;101400.25;5072989;28;20097;-69
2022/07/14 02:51:00;;;;;;;10.68;1.98;;;;;;;17.71;65.72;101400.66;5070023;28;20573;-69
2022/07/14 02:53:27;;;;;;;9.80;2.17;;;;;;;17.70;65.28;101398.94;5083904;28;20044;-69
2022/07/14 02:55:53;;;;;;;10.93;2.15;;;;;;;17.95;65.01;101393.59;5069403;28;20044;-69
2022/07/14 02:58:20;;;;;;;11.38;2.53;;;;;;;18.06;64.66;101400.78;5072865;28;20079;-70
2022/07/14 03:00:46;;;;;;;10.27;2.28;;;;;;;18.07;64.61;101399.81;5088161;28;20040;-70
2022/07/14 03:03:14;;;;;;;8.60;1.98;;;;;;;18.23;64.45;101408.38;5079339;27;20512;-69
2022/07/14 03:05:40;;;;;;;12.05;2.55;;;;;;;17.84;66.18;101419.22;5087405;27;20499;-69
2022/07/14 03:08:07;;;;;;;8.93;2.83;;;;;;;17.88;66.17;101420.69;5072515;27;20044;-69
2022/07/14 03:10:33;;;;;;;8.30;2.38;;;;;;;17.86;66.25;101428.75;5066707;28;20045;-69
2022/07/14 03:12:59;;;;;;;10.85;2.63;;;;;;;17.69;66.61;101425.59;5073574;27;20045;-69
2022/07/14 03:15:26;;;;;;;8.73;2.38;;;;;;;17.53;67.33;101418.69;5068150;27;20041;-69
2022/07/14 03:17:52;;;;;;;12.00;2.50;;;;;;;17.59;67.19;101421.91;5069885;28;20581;-69
2022/07/14 03:20:20;;;;;;;14.95;3.03;;;;;;;17.70;66.61;101424.66;5067357;28;20049;-69
2022/07/14 03:22:46;;;;;;;11.77;2.28;;;;;;;17.82;66.29;101426.41;5072675;27;20400;-69
2022/07/14 03:25:13;;;;;;;12.48;2.65;;;;;;;17.75;65.94;101427.81;5067603;28;20045;-69
2022/07/14 03:27:40;;;;;;;8.80;2.45;;;;;;;17.62;66.41;101435.78;5061726;28;20508;-69
2022/07/14 03:30:08;;;;;;;14.95;3.85;;;;;;;17.50;67.11;101432.16;5048636;28;20067;-69
2022/07/14 03:32:35;;;;;;;11.30;2.30;;;;;;;17.33;67.55;101436.94;5047732;28;20107;-69
2022/07/14 03:35:03;;;;;;;15.85;2.47;;;;;;;17.51;66.96;101427.72;5045862;28;20541;-69
2022/07/14 03:37:30;;;;;;;15.43;2.35;;;;;;;17.32;67.37;101420.19;5037383;28;20053;-69
2022/07/14 03:39:57;;;;;;;14.65;2.65;;;;;;;17.30;67.92;101431.81;5046611;28;20090;-69
2022/07/14 03:42:24;;;;;;;11.52;2.53;;;;;;;17.45;67.25;101438.72;5046005;28;20080;-69
2022/07/14 03:44:50;;;;;;;10.98;2.58;;;;;;;17.42;67.35;101437.13;5046002;28;20055;-69
2022/07/14 03:47:16;;;;;;;14.30;2.97;;;;;;;17.38;67.06;101438.31;5048464;28;20226;-69
2022/07/14 03:49:43;;;;;;;11.95;2.42;;;;;;;17.78;66.15;101438.19;5046886;28;20076;-69
2022/07/14 03:52:10;;;;;;;8.88;2.42;;;;;;;17.86;66.15;101431.41;5045662;28;20075;-69
2022/07/14 03:54:38;;;;;;;9.55;3.58;;;;;;;17.90;65.57;101432.88;5047385;28;20087;-69
2022/07/14 03:57:04;;;;;;;11.13;2.40;;;;;;;17.80;66.73;101442.47;5046356;28;20065;-69
2022/07/14 03:59:31;;;;;;;11.25;3.15;;;;;;;18.10;66.05;101435.91;5045187;28;20163;-69
2022/07/14 04:01:57;;;;;;;12.15;2.75;;;;;;;17.83;66.91;101430.78;5047673;28;20076;-69
2022/07/14 04:04:23;;;;;;;10.85;2.42;;;;;;;17.76;66.56;101432.16;5044679;28;20104;-69
2022/07/14 04:06:50;;;;;;;11.18;2.08;;;;;;;18.09;66.90;101434.22;5044859;28;20878;-69
2022/07/14 04:09:16;;;;;;;16.63;3.25;;;;;;;18.32;66.97;101430.75;5046882;28;20578;-69
2022/07/14 04:11:44;;;;;;;14.15;2.95;;;;;;;18.32;66.58;101436.06;5046005;28;20049;-69
2022/07/14 04:14:10;;;;;;;6.88;1.88;;;;;;;18.62;64.84;101425.03;5045906;28;20500;-69
2022/07/14 04:16:39;;;;;;;9.40;2.15;;;;;;;18.43;65.43;101430.81;5047590;28;20057;-69
2022/07/14 04:19:06;;;;;;;16.95;3.10;;;;;;;18.64;65.58;101425.75;5045650;28;20059;-69
2022/07/14 04:21:32;;;;;;;9.85;2.45;;;;;;;18.78;64.49;101421.09;5046094;28;20061;-69
2022/07/14 04:23:59;;;;;;;13.82;3.25;;;;;;;18.23;64.33;101428.75;5045387;28;20126;-69
2022/07/14 04:26:25;;;;;;;10.82;2.35;;;;;;;18.09;65.66;101435.06;5045679;28;20048;-68
2022/07/14 04:28:53;;;;;;;13.07;2.28;;;;;;;18.31;64.53;101419.28;5046221;28;20154;-68
2022/07/14 04:31:19;;;;;;;13.63;2.92;;;;;;;18.58;63.74;101408.47;5046590;28;20491;-68
2022/07/14 04:33:45;;;;;;;10.05;2.67;;;;;;;18.60;63.18;101413.66;5047033;28;20056;-68
2022/07/14 04:36:12;;;;;;;9.45;2.15;;;;;;;18.17;62.99;101422.09;5038880;28;20055;-68
2022/07/14 04:38:38;;;;;;;8.10;2.15;;;;;;;17.83;64.32;101430.78;5042929;28;20075;-68
2022/07/14 04:41:05;;;;;;;13.05;2.53;;;;;;;17.98;63.83;101433.19;5045879;28;20694;-69
2022/07/14 04:43:31;;;;;;;17.63;2.38;;;;;;;17.98;64.18;101432.34;5046559;28;20390;-69
2022/07/14 04:45:59;;;;;;;9.57;2.25;;;;;;;17.67;64.05;101425.69;5043636;28;20133;-69
2022/07/14 04:48:25;;;;;;;11.45;1.95;;;;;;;17.71;64.29;101428.97;5045037;28;20040;-69
2022/07/14 04:53:36;;;;;;;11.55;2.45;;;;;;;18.03;63.73;101442.63;5041699;28;20178;-69
2022/07/14 04:56:03;;;;;;;9.60;1.90;;;;;;;18.02;63.83;101444.44;5046629;28;20053;-69
2022/07/14 04:58:30;;;;;;;11.52;2.55;;;;;;;18.14;63.55;101454.19;5044640;28;20586;-69
2022/07/14 05:00:59;;;;;;;5.95;2.25;;;;;;;18.42;62.61;101461.81;5045062;28;20057;-69
2022/07/14 05:03:25;;;;;;;10.65;3.53;;;;;;;18.41;62.00;101460.13;5046859;28;20059;-69
2022/07/14 05:05:52;;;;;;;10.57;1.92;;;;;;;18.37;62.74;101457.78;5043846;28;20080;-69
2022/07/14 05:08:18;;;;;;;11.85;2.28;;;;;;;18.49;62.38;101463.06;5046526;28;20109;-69
2022/07/14 05:10:48;;;;;;;12.25;2.45;;;;;;;18.60;62.20;101467.63;5047473;28;20711;-69
2022/07/14 05:13:14;;;;;;;5.47;1.75;;;;;;;18.46;61.92;101471.25;5067932;28;20088;-69
2022/07/14 05:15:41;;;;;;;12.90;2.38;;;;;;;18.65;61.88;101464.63;5046516;28;20089;-69
2022/07/14 05:18:09;;;;;;;8.02;1.85;;;;;;;18.92;61.27;101459.91;5044509;28;20076;-69
2022/07/14 05:20:35;;;;;;;9.93;2.17;;;;;;;19.19;60.21;101468.47;5046314;28;20492;-69
2022/07/14 05:23:02;;;;;;;10.23;1.88;;;;;;;19.35;60.02;101469.00;5048677;28;20988;-69
2022/07/14 05:25:28;;;;;;;15.43;2.50;;;;;;;19.62;59.95;101467.88;5050674;28;20462;-69
2022/07/14 05:27:55;;;;;;;11.60;2.05;;;;;;;19.70;58.91;101473.41;5049086;28;20053;-69
2022/07/14 05:30:21;;;;;;;7.18;2.00;;;;;;;19.94;57.38;101468.84;5050095;28;20078;-69
2022/07/14 05:32:47;;;;;;;8.68;1.70;;;;;;;20.23;55.86;101475.34;5049762;28;20080;-69
2022/07/14 05:35:15;;;;;;;7.72;2.10;;;;;;;20.49;56.03;101467.09;5048882;28;20068;-69
2022/07/14 05:37:41;;;;;;;8.13;1.88;;;;;;;20.44;55.20;101482.59;5048844;28;20520;-69
2022/07/14 05:40:09;;;;;;;7.28;1.55;;;;;;;20.80;53.66;101474.25;5050381;28;20111;-69
2022/07/14 05:42:35;;;;;;;11.73;2.15;;;;;;;20.72;54.84;101474.03;5049182;28;20045;-69
2022/07/14 05:45:01;;;;;;;9.30;2.50;;;;;;;21.12;52.60;101466.25;5046324;28;20154;-69
2022/07/14 05:47:28;;;;;;;10.75;2.03;;;;;;;21.62;51.29;101468.09;5050050;28;20585;-69
2022/07/14 05:49:54;;;;;;;7.72;2.25;;;;;;;21.74;51.81;101469.72;5049560;28;20098;-69
2022/07/14 05:52:22;;;;;;;9.75;1.75;;;;;;;21.53;51.04;101462.72;5048419;28;20472;-69
2022/07/14 05:54:48;;;;;;;7.15;1.70;;;;;;;21.78;49.90;101470.31;5048867;28;20397;-69
2022/07/14 05:57:16;;;;;;;6.10;1.80;;;;;;;22.09;49.54;101463.16;5047451;28;20134;-68
2022/07/14 05:59:42;;;;;;;5.60;1.30;;;;;;;22.06;48.16;101464.25;5049963;28;20048;-69
2022/07/14 06:02:09;;;;;;;6.82;1.45;;;;;;;22.50;48.33;101462.13;5046858;28;20130;-69
2022/07/14 06:04:35;;;;;;;11.55;1.63;;;;;;;22.55;48.11;101463.38;5047725;28;20177;-69
2022/07/14 06:07:01;;;;;;;6.50;1.88;;;;;;;23.00;47.31;101461.03;5048928;28;20126;-69
2022/07/14 06:09:29;;;;;;;13.98;2.70;;;;;;;23.07;46.64;101454.13;5048850;28;20060;-69
2022/07/14 06:11:56;;;;;;;10.18;2.38;;;;;;;22.67;46.30;101448.06;5048917;28;20048;-68
2022/07/14 06:14:22;;;;;;;8.13;2.08;;;;;;;22.79;46.82;101441.63;5047071;28;20059;-69
2022/07/14 06:16:48;;;;;;;7.28;1.40;;;;;;;23.21;46.06;101442.13;5048530;28;20068;-69
2022/07/14 06:19:15;;;;;;;7.88;1.70;;;;;;;23.63;44.81;101448.00;5045883;28;20057;-69
2022/07/14 06:21:41;;;;;;;6.40;1.55;;;;;;;23.71;44.96;101442.75;5048584;28;20470;-68
2022/07/14 06:24:08;;;;;;;6.38;1.27;;;;;;;23.70;43.58;101435.69;5047663;28;20052;-68
2022/07/14 06:26:35;;;;;;;7.38;1.27;;;;;;;23.34;44.49;101433.81;5049172;28;20109;-68
2022/07/14 06:29:02;;;;;;;5.57;1.58;;;;;;;23.25;44.61;101431.00;5050436;28;20053;-68
2022/07/14 06:31:28;;;;;;;7.35;1.67;;;;;;;23.69;44.13;101429.50;5048902;28;20133;-67
2022/07/14 06:33:55;;;;;;;10.55;1.20;;;;;;;23.45;44.04;101429.19;5047834;28;20032;-66
2022/07/14 06:36:21;;;;;;;6.72;1.20;;;;;;;24.23;41.65;101425.19;5049332;28;20111;-66
2022/07/14 06:38:47;;;;;;;6.35;1.38;;;;;;;23.73;42.20;101438.94;5046870;28;20133;-66
2022/07/14 06:41:14;;;;;;;5.65;1.45;;;;;;;24.07;40.68;101436.50;5047440;28;20094;-66
2022/07/14 06:43:41;;;;;;;8.32;1.00;;;;;;;24.31;39.98;101430.63;5048698;28;20130;-66
2022/07/14 06:46:08;;;;;;;3.72;1.27;;;;;;;24.53;39.16;101429.34;5045064;28;20090;-66
2022/07/14 06:48:34;;;;;;;5.47;1.40;;;;;;;24.46;40.14;101421.06;5046913;28;20052;-66
2022/07/14 06:51:02;;;;;;;6.55;1.30;;;;;;;24.72;38.96;101426.50;5050163;28;20064;-66
2022/07/14 06:53:29;;;;;;;7.80;1.45;;;;;;;24.79;39.64;101416.00;5048534;28;20053;-66
2022/07/14 06:55:55;;;;;;;6.22;1.30;;;;;;;24.47;39.67;101421.88;5046684;28;20080;-66
2022/07/14 06:58:21;;;;;;;4.65;1.30;;;;;;;24.55;39.36;101421.97;5048247;28;20449;-66
2022/07/14 07:00:49;;;;;;;5.60;1.50;;;;;;;24.90;38.94;101419.31;5048511;28;20520;-66
2022/07/14 07:03:16;;;;;;;4.10;1.25;;;;;;;24.93;38.71;101408.28;5044596;28;20060;-66
2022/07/14 07:08:28;;;;;;;5.70;1.67;;;;;;;25.45;38.15;101401.09;5043855;28;20094;-66
2022/07/14 07:10:55;;;;;;;6.57;1.20;;;;;;;25.36;39.55;101403.84;5046422;28;20113;-66
2022/07/14 07:13:22;;;;;;;5.43;1.35;;;;;;;25.10;40.61;101404.72;5046287;28;20202;-66
2022/07/14 07:15:49;;;;;;;5.43;1.50;;;;;;;25.74;38.68;101398.06;5045464;28;20130;-66
2022/07/14 07:18:16;;;;;;;5.78;1.10;;;;;;;25.57;39.04;101397.13;5043944;28;20210;-66
2022/07/14 07:20:44;;;;;;;4.80;1.15;;;;;;;25.50;38.05;101393.38;5046236;28;20068;-67
2022/07/14 07:23:11;;;;;;;8.25;1.25;;;;;;;26.38;37.40;101375.94;5047222;28;20118;-66
2022/07/14 07:25:37;;;;;;;5.78;1.45;;;;;;;26.63;36.21;101376.78;5036454;28;20052;-66
2022/07/14 07:28:04;;;;;;;6.28;1.45;;;;;;;26.46;35.92;101380.50;5039782;28;20081;-67
2022/07/14 07:30:30;;;;;;;6.32;1.40;;;;;;;26.50;35.16;101368.38;5048056;28;20076;-67
2022/07/14 07:32:58;;;;;;;5.43;1.15;;;;;;;26.75;38.10;101366.53;5046133;28;20080;-66
2022/07/14 07:35:24;;;;;;;5.05;1.13;;;;;;;26.61;35.38;101362.66;5046570;28;20080;-66
2022/07/14 07:37:51;;;;;;;4.20;1.17;;;;;;;26.05;37.36;101366.91;5044193;28;20569;-67
2022/07/14 07:40:17;;;;;;;8.68;1.35;;;;;;;26.38;36.89;101365.19;5046855;28;20057;-68
2022/07/14 07:42:44;;;;;;;5.22;1.42;;;;;;;26.52;34.32;101360.97;5043567;28;20867;-67
2022/07/14 07:45:11;;;;;;;7.72;1.42;;;;;;;26.51;34.09;101365.53;5045743;28;20103;-66
2022/07/14 07:47:37;;;;;;;5.65;1.58;;;;;;;26.84;34.72;101358.31;5047222;28;20057;-66
2022/07/14 07:50:06;;;;;;;6.65;2.28;;;;;;;27.18;37.17;101362.63;5046254;28;20076;-65
2022/07/14 07:52:33;;;;;;;4.68;1.17;;;;;;;27.29;35.39;101360.41;5046875;28;20128;-65
2022/07/14 07:55:00;;;;;;;3.42;1.33;;;;;;;27.50;38.51;101359.88;5047128;28;20126;-65
2022/07/14 07:57:26;;;;;;;4.95;1.17;;;;;;;27.77;35.43;101358.59;5047600;28;20499;-65
2022/07/14 07:59:52;;;;;;;6.65;1.52;;;;;;;27.80;33.69;101353.69;5047435;28;20099;-65
2022/07/14 08:02:24;;;;;;;4.78;1.10;;;;;;;27.95;31.77;101351.91;5046645;28;20056;-66
2022/07/14 08:04:51;;;;;;;4.40;1.25;;;;;;;27.80;33.43;101364.47;5047772;28;20053;-66
2022/07/14 08:07:19;;;;;;;4.47;1.15;;;;;;;27.90;34.71;101354.28;5046065;28;20102;-66
2022/07/14 08:09:45;;;;;;;7.07;1.50;;;;;;;28.60;30.34;101347.97;5045451;28;20048;-66
2022/07/14 08:12:11;;;;;;;4.20;1.00;;;;;;;28.32;31.18;101348.50;5045935;28;20508;-66
2022/07/14 08:14:50;;;;;;;3.50;1.27;;;;;;;27.38;34.83;101347.78;5044691;28;20532;-65
2022/07/14 08:17:17;;;;;;;7.43;1.95;;;;;;;27.56;34.08;101351.09;5044574;28;20128;-65
2022/07/14 08:19:44;;;;;;;10.55;1.85;;;;;;;27.78;38.01;101355.72;5046683;28;20067;-65
2022/07/14 08:22:10;;;;;;;8.02;1.42;;;;;;;28.21;32.55;101346.22;5044708;28;20064;-66
2022/07/14 08:24:38;;;;;;;6.28;1.17;;;;;;;28.03;34.20;101338.38;5045214;28;20063;-66
2022/07/14 08:27:05;;;;;;;4.97;1.33;;;;;;;27.80;32.59;101331.28;5045158;28;20458;-66
2022/07/14 08:29:31;;;;;;;6.68;1.42;;;;;;;28.27;33.40;101339.28;5044384;28;20106;-66
2022/07/14 08:31:58;;;;;;;5.35;1.38;;;;;;;28.43;31.59;101339.13;5046594;28;20141;-66
2022/07/14 08:34:24;;;;;;;9.65;1.08;;;;;;;28.40;31.93;101334.97;5045381;28;20053;-66
2022/07/14 08:36:50;;;;;;;4.63;1.40;;;;;;;28.34;30.75;101340.25;5045481;28;20120;-66
2022/07/14 08:39:17;;;;;;;5.85;1.23;;;;;;;28.63;33.87;101331.41;5046824;28;20456;-67
2022/07/14 08:41:47;;;;;;;2.67;1.00;;;;;;;28.73;31.67;101330.16;5041922;28;20144;-66
2022/07/14 08:44:13;;;;;;;7.75;1.30;;;;;;;28.25;32.41;101330.53;5046404;28;20102;-66
2022/07/14 08:46:40;;;;;;;2.78;0.88;;;;;;;28.26;32.60;101327.66;5043045;28;20061;-66
2022/07/14 08:49:07;;;;;;;9.95;1.25;;;;;;;28.39;31.58;101325.19;5051609;28;20129;-67
2022/07/14 08:51:33;;;;;;;3.65;1.25;;;;;;;28.24;32.40;101326.97;5055041;28;20127;-67
2022/07/14 08:54:00;;;;;;;6.22;1.05;;;;;;;28.77;31.09;101330.63;5064682;28;20048;-66
2022/07/14 08:56:27;;;;;;;6.07;1.10;;;;;;;28.79;33.33;101329.41;5081663;28;20843;-66
2022/07/14 08:58:54;;;;;;;3.88;0.98;;;;;;;28.81;33.53;101321.13;5079386;28;20047;-66
2022/07/14 09:01:22;;;;;;;12.07;1.20;;;;;;;28.85;33.44;101322.44;5062666;28;20045;-66
2022/07/14 09:03:48;;;;;;;3.20;0.90;;;;;;;29.36;31.80;101328.84;5069215;28;20046;-66
2022/07/14 09:06:47;;;;;;;4.75;1.27;;;;;;;28.95;30.74;101325.72;5079980;27;20135;-65
2022/07/14 09:09:17;;;;;;;6.35;1.15;;;;;;;29.33;31.65;101335.47;5079210;27;20051;-65
2022/07/14 09:11:50;;;;;;;7.68;1.48;;;;;;;27.74;29.30;101324.75;5077919;27;20432;-65
2022/07/14 09:14:17;;;;;;;8.77;1.38;;;;;;;26.79;33.48;101333.72;5076968;27;20044;-65
2022/07/14 09:16:44;;;;;;;6.50;1.48;;;;;;;27.58;34.37;101330.22;5068553;28;20060;-66
2022/07/14 09:19:13;;;;;;;4.53;1.10;;;;;;;27.87;32.69;101325.00;5066660;28;20587;-67
2022/07/14 09:21:43;;;;;;;5.70;1.25;;;;;;;28.44;33.97;101320.09;5054698;28;20052;-66
2022/07/14 09:24:11;;;;;;;5.95;1.52;;;;;;;27.09;31.82;101316.03;5053227;28;20117;-65
2022/07/14 09:26:44;;;;;;;6.75;1.50;;;;;;;27.61;36.88;101321.75;5052261;28;20142;-65
2022/07/14 09:29:18;;;;;;;3.60;1.35;;;;;;;28.66;36.07;101317.53;5049266;28;20443;-65
2022/07/14 09:31:45;;;;;;;7.28;1.50;;;;;;;29.26;32.54;101312.03;5032675;28;20730;-66
2022/07/14 09:34:26;;;;;;;6.82;1.55;;;;;;;29.62;30.54;101302.16;5057446;28;20056;-66
2022/07/14 09:36:52;;;;;;;5.97;1.85;;;;;;;29.54;32.75;101299.56;5047972;28;20059;-66
2022/07/14 09:39:20;;;;;;;8.40;1.80;;;;;;;29.17;29.11;101294.25;5047029;28;20067;-66
2022/07/14 09:41:52;;;;;;;5.72;1.33;;;;;;;29.79;32.16;101294.63;5050417;28;20069;-66
2022/07/14 09:44:21;;;;;;;7.25;1.63;;;;;;;29.90;30.38;101292.31;5054490;28;20044;-66
2022/07/14 09:46:50;;;;;;;8.68;1.40;;;;;;;29.34;33.63;101287.69;5053334;28;20045;-66
2022/07/14 09:49:18;;;;;;;4.20;1.10;;;;;;;29.42;31.18;101282.13;5060857;28;20711;-66
2022/07/14 09:51:56;;;;;;;6.65;1.10;;;;;;;29.83;28.20;101271.59;5069176;28;20048;-66
2022/07/14 09:54:43;;;;;;;5.25;1.30;;;;;;;30.24;29.84;101266.44;5057810;28;20563;-66
2022/07/14 09:57:24;;;;;;;4.35;1.27;;;;;;;30.76;27.50;101266.88;5063845;28;20549;-66
2022/07/14 09:59:54;;;;;;;5.50;1.52;;;;;;;30.63;24.77;101261.38;5065969;28;20047;-66
2022/07/14 10:02:22;;;;;;;5.43;1.67;;;;;;;30.10;29.97;101256.53;5068665;28;20113;-66
2022/07/14 10:04:49;;;;;;;5.47;1.33;;;;;;;29.61;29.60;101261.78;5068727;28;20048;-66
2022/07/14 10:07:17;;;;;;;6.35;1.38;;;;;;;29.86;33.02;101261.28;5064096;28;20048;-66
2022/07/14 10:09:50;;;;;;;4.43;1.20;;;;;;;29.97;30.67;101249.09;5062979;28;20131;-66
2022/07/14 10:12:16;;;;;;;3.72;1.20;;;;;;;30.09;30.01;101244.88;5067635;28;20131;-66
2022/07/14 10:14:43;;;;;;;4.30;1.10;;;;;;;30.20;28.84;101244.34;5067810;28;20048;-66
2022/07/14 10:17:12;;;;;;;3.28;0.98;;;;;;;30.30;29.20;101244.84;5068823;28;20511;-66
2022/07/14 10:19:39;;;;;;;4.80;1.52;;;;;;;30.44;26.85;101240.41;5068462;28;20049;-66
2022/07/14 10:22:06;;;;;;;5.05;1.00;;;;;;;30.73;26.24;101245.63;5080154;27;20040;-66
2022/07/14 10:24:33;;;;;;;2.92;0.90;;;;;;;31.17;28.18;101247.13;5076583;27;20040;-66
2022/07/14 10:27:01;;;;;;;6.68;1.55;;;;;;;31.08;26.26;101243.75;5066864;28;20681;-66
2022/07/14 10:29:28;;;;;;;4.07;1.10;;;;;;;30.71;29.12;101238.75;5075910;27;20040;-66
2022/07/14 10:32:11;;;;;;;6.65;1.48;;;;;;;30.79;29.83;101250.22;5074635;27;20044;-66
2022/07/14 10:34:45;;;;;;;6.32;1.33;;;;;;;30.81;30.32;101245.47;5056808;28;20041;-66
2022/07/14 10:37:23;;;;;;;4.57;1.40;;;;;;;31.22;25.33;101240.09;5047886;28;20076;-66
2022/07/14 10:39:56;;;;;;;4.07;1.10;;;;;;;31.24;25.52;101237.16;5053833;28;20489;-66
2022/07/14 10:42:31;;;;;;;3.80;1.13;;;;;;;30.40;26.24;101236.41;5047254;28;20037;-65
2022/07/14 10:44:58;;;;;;;3.55;1.10;;;;;;;30.21;26.31;101231.66;5061182;28;20051;-65
2022/07/14 10:47:25;;;;;;;6.07;1.33;;;;;;;30.16;29.82;101226.81;5068226;28;20049;-66
2022/07/14 10:50:06;;;;;;;3.22;1.10;;;;;;;30.60;31.95;101225.75;5068609;28;20071;-66
2022/07/14 10:52:35;;;;;;;4.18;1.05;;;;;;;30.50;28.79;101215.25;5056820;28;20432;-66
2022/07/14 10:55:18;;;;;;;6.43;1.15;;;;;;;29.72;27.68;101208.06;5076248;28;20131;-66
2022/07/14 10:58:22;;;;;;;2.28;1.00;;;;;;;29.82;31.87;101205.88;5079158;28;20084;-66
2022/07/14 11:00:58;;;;;;;4.40;1.00;;;;;;;30.27;30.11;101204.66;5085044;27;20454;-66
2022/07/14 11:03:40;;;;;;;6.25;0.98;;;;;;;30.60;30.21;101207.63;5086213;27;20048;-66
2022/07/14 11:06:18;;;;;;;6.20;1.40;;;;;;;30.82;29.78;101201.09;5086340;27;20576;-67
2022/07/14 11:08:46;;;;;;;4.72;1.58;;;;;;;31.13;28.83;101197.94;5086810;27;20055;-66
2022/07/14 11:11:19;;;;;;;6.18;1.60;;;;;;;31.11;31.44;101200.03;5079372;27;20476;-66
2022/07/14 11:14:07;;;;;;;7.38;1.30;;;;;;;31.40;29.13;101196.16;5073516;27;20071;-66
2022/07/14 11:16:56;;;;;;;9.23;1.55;;;;;;;31.64;27.40;101195.63;5066369;28;20135;-66
2022/07/14 11:19:27;;;;;;;7.07;1.48;;;;;;;31.29;28.53;101199.47;5066914;28;20135;-68
2022/07/14 11:22:16;;;;;;;6.10;1.23;;;;;;;30.52;31.18;101188.84;5068262;28;20032;-66
2022/07/14 11:24:52;;;;;;;5.55;1.40;;;;;;;30.20;27.92;101181.28;5055272;28;20067;-67
2022/07/14 11:27:26;;;;;;;5.85;1.02;;;;;;;30.14;29.42;101179.38;5076601;27;20048;-66
2022/07/14 11:29:53;;;;;;;3.97;1.10;;;;;;;29.63;23.71;101165.16;5079972;27;20044;-66
2022/07/14 11:32:34;;;;;;;9.40;1.40;;;;;;;29.85;28.61;101164.16;5086155;27;20458;-66
2022/07/14 11:38:00;;;;;;;6.40;1.30;;;;;;;30.45;30.60;101169.00;5064144;28;20056;-66
2022/07/14 11:40:41;;;;;;;7.03;1.20;;;;;;;30.88;31.42;101156.97;5059656;28;20041;-66